Terminal Aerodrome Forecast
Issued by NWS Tampa Bay Area, FL

Home | Current Version | Previous Version | Text Only | Print | Product List | Glossary On
Versions: 1 2 3 4 5 6 7 8 9 10 11 12 13 14 15
000
FTUS42 KTBW 250534
TAFFMY
TAF
KFMY 250534Z 2506/2606 VRB03KT 6SM BR SCT020
      TEMPO 2510/2514 2SM BR SCT005 BKN020
     FM251500 04005KT P6SM FEW020 SCT250
     FM251800 32005KT P6SM SCT040 SCT250
     FM260100 VRB03KT P6SM FEW040 SCT100=

USA.gov is the U.S. government's official web portal to all federal, state and local government web resources and services.